7°C Temp
4°C Dewpoint
81% Humidity
Temperature
3 KM/H
2 MPH
2 KTS
Calm
Due North

Wind Speed
Partly Cloudy
Conditions
Pressure 995.92 (hPa) - 29.41 (in)
Visibility 6.2 (mi) - 10.0 (km)

Current Conditions
EGCN
Location 28(km)
Metar :EGCN 051220Z VRB02KT 9999 FEW033 07/04 Q0996
Sat 5th December 13:20 pm

Airport
  Metar Aviation API Data Provided by https://www.checkwx.com/ PHP scripts by weather34.com ©2020